sensor_id;sensor_type;location;lat;lon;timestamp;P1;durP1;ratioP1;P2;durP2;ratioP2
15153;SDS011;7677;41.896;25.004;2022-11-23T00:00:05;2.63;;;1.37;;
15153;SDS011;7677;41.896;25.004;2022-11-23T00:02:33;1.00;;;1.00;;
15153;SDS011;7677;41.896;25.004;2022-11-23T00:05:01;3.33;;;1.60;;
15153;SDS011;7677;41.896;25.004;2022-11-23T00:07:28;5.80;;;2.43;;
15153;SDS011;7677;41.896;25.004;2022-11-23T00:09:56;1.87;;;1.77;;
15153;SDS011;7677;41.896;25.004;2022-11-23T00:12:23;2.10;;;1.80;;
15153;SDS011;7677;41.896;25.004;2022-11-23T00:14:50;1.50;;;1.40;;
15153;SDS011;7677;41.896;25.004;2022-11-23T00:17:17;1.87;;;1.10;;
15153;SDS011;7677;41.896;25.004;2022-11-23T00:19:44;1.00;;;1.00;;
15153;SDS011;7677;41.896;25.004;2022-11-23T00:22:14;1.90;;;1.77;;
15153;SDS011;7677;41.896;25.004;2022-11-23T00:24:43;7.23;;;4.33;;
15153;SDS011;7677;41.896;25.004;2022-11-23T00:27:10;8.97;;;6.10;;
15153;SDS011;7677;41.896;25.004;2022-11-23T00:29:37;7.47;;;4.17;;
15153;SDS011;7677;41.896;25.004;2022-11-23T00:32:04;2.67;;;2.33;;
15153;SDS011;7677;41.896;25.004;2022-11-23T00:34:32;2.53;;;2.03;;
15153;SDS011;7677;41.896;25.004;2022-11-23T00:36:59;1.67;;;1.57;;
15153;SDS011;7677;41.896;25.004;2022-11-23T00:39:27;2.03;;;1.80;;
15153;SDS011;7677;41.896;25.004;2022-11-23T00:41:54;1.60;;;1.47;;
15153;SDS011;7677;41.896;25.004;2022-11-23T00:44:22;1.90;;;1.60;;
15153;SDS011;7677;41.896;25.004;2022-11-23T00:46:49;1.93;;;1.80;;
15153;SDS011;7677;41.896;25.004;2022-11-23T00:49:16;2.70;;;2.17;;
15153;SDS011;7677;41.896;25.004;2022-11-23T00:51:43;2.03;;;1.83;;
15153;SDS011;7677;41.896;25.004;2022-11-23T00:54:11;1.43;;;1.33;;
15153;SDS011;7677;41.896;25.004;2022-11-23T00:56:40;2.27;;;1.53;;
15153;SDS011;7677;41.896;25.004;2022-11-23T00:59:08;4.90;;;1.70;;
15153;SDS011;7677;41.896;25.004;2022-11-23T01:01:35;2.83;;;1.30;;
15153;SDS011;7677;41.896;25.004;2022-11-23T01:04:06;1.77;;;1.20;;
15153;SDS011;7677;41.896;25.004;2022-11-23T01:06:34;3.47;;;2.30;;
15153;SDS011;7677;41.896;25.004;2022-11-23T01:09:03;1.83;;;1.73;;
15153;SDS011;7677;41.896;25.004;2022-11-23T01:11:32;2.07;;;1.87;;
15153;SDS011;7677;41.896;25.004;2022-11-23T01:14:00;3.00;;;1.60;;
15153;SDS011;7677;41.896;25.004;2022-11-23T01:16:29;1.43;;;1.33;;
15153;SDS011;7677;41.896;25.004;2022-11-23T01:18:57;1.83;;;1.53;;
15153;SDS011;7677;41.896;25.004;2022-11-23T01:21:26;2.37;;;1.30;;
15153;SDS011;7677;41.896;25.004;2022-11-23T01:23:55;1.20;;;1.10;;
15153;SDS011;7677;41.896;25.004;2022-11-23T01:26:22;2.27;;;1.63;;
15153;SDS011;7677;41.896;25.004;2022-11-23T01:28:49;1.50;;;1.40;;
15153;SDS011;7677;41.896;25.004;2022-11-23T01:31:19;1.50;;;1.30;;
15153;SDS011;7677;41.896;25.004;2022-11-23T01:33:47;2.07;;;1.30;;
15153;SDS011;7677;41.896;25.004;2022-11-23T01:36:18;1.80;;;1.70;;
15153;SDS011;7677;41.896;25.004;2022-11-23T01:38:47;2.70;;;1.40;;
15153;SDS011;7677;41.896;25.004;2022-11-23T01:41:15;1.40;;;1.30;;
15153;SDS011;7677;41.896;25.004;2022-11-23T01:43:43;1.20;;;1.20;;
15153;SDS011;7677;41.896;25.004;2022-11-23T01:46:10;1.67;;;1.40;;
15153;SDS011;7677;41.896;25.004;2022-11-23T01:48:40;2.40;;;1.10;;
15153;SDS011;7677;41.896;25.004;2022-11-23T01:51:11;1.70;;;1.60;;
15153;SDS011;7677;41.896;25.004;2022-11-23T01:53:40;1.50;;;1.40;;
15153;SDS011;7677;41.896;25.004;2022-11-23T01:56:09;1.37;;;1.20;;
15153;SDS011;7677;41.896;25.004;2022-11-23T01:58:38;3.70;;;1.87;;
15153;SDS011;7677;41.896;25.004;2022-11-23T02:01:09;6.83;;;1.30;;
15153;SDS011;7677;41.896;25.004;2022-11-23T02:03:36;2.00;;;1.30;;
15153;SDS011;7677;41.896;25.004;2022-11-23T02:06:07;3.10;;;1.73;;
15153;SDS011;7677;41.896;25.004;2022-11-23T02:08:37;1.97;;;1.00;;
15153;SDS011;7677;41.896;25.004;2022-11-23T02:11:04;3.50;;;1.73;;
15153;SDS011;7677;41.896;25.004;2022-11-23T02:13:31;1.00;;;1.00;;
15153;SDS011;7677;41.896;25.004;2022-11-23T02:15:58;1.53;;;1.43;;
15153;SDS011;7677;41.896;25.004;2022-11-23T02:18:27;1.10;;;1.10;;
15153;SDS011;7677;41.896;25.004;2022-11-23T02:20:58;2.63;;;1.37;;
15153;SDS011;7677;41.896;25.004;2022-11-23T02:23:29;1.30;;;1.20;;
15153;SDS011;7677;41.896;25.004;2022-11-23T02:26:03;1.87;;;1.30;;
15153;SDS011;7677;41.896;25.004;2022-11-23T02:28:32;1.30;;;1.20;;
15153;SDS011;7677;41.896;25.004;2022-11-23T02:31:02;1.90;;;1.80;;
15153;SDS011;7677;41.896;25.004;2022-11-23T02:33:29;1.97;;;1.77;;
15153;SDS011;7677;41.896;25.004;2022-11-23T02:35:59;2.07;;;1.70;;
15153;SDS011;7677;41.896;25.004;2022-11-23T02:38:28;6.00;;;1.77;;
15153;SDS011;7677;41.896;25.004;2022-11-23T02:40:57;2.57;;;1.43;;
15153;SDS011;7677;41.896;25.004;2022-11-23T02:43:26;1.63;;;1.50;;
15153;SDS011;7677;41.896;25.004;2022-11-23T02:45:53;2.70;;;1.70;;
15153;SDS011;7677;41.896;25.004;2022-11-23T02:48:22;1.57;;;1.47;;
15153;SDS011;7677;41.896;25.004;2022-11-23T02:50:49;1.20;;;1.20;;
15153;SDS011;7677;41.896;25.004;2022-11-23T02:53:16;1.10;;;1.10;;
15153;SDS011;7677;41.896;25.004;2022-11-23T02:55:44;1.60;;;1.43;;
15153;SDS011;7677;41.896;25.004;2022-11-23T02:58:11;2.10;;;1.70;;
15153;SDS011;7677;41.896;25.004;2022-11-23T03:00:40;1.70;;;1.60;;
15153;SDS011;7677;41.896;25.004;2022-11-23T03:03:07;2.07;;;1.47;;
15153;SDS011;7677;41.896;25.004;2022-11-23T03:05:34;1.97;;;1.80;;
15153;SDS011;7677;41.896;25.004;2022-11-23T03:08:02;1.80;;;1.40;;
15153;SDS011;7677;41.896;25.004;2022-11-23T03:10:29;2.13;;;1.70;;
15153;SDS011;7677;41.896;25.004;2022-11-23T03:12:56;1.63;;;1.53;;
15153;SDS011;7677;41.896;25.004;2022-11-23T03:15:23;2.00;;;1.80;;
15153;SDS011;7677;41.896;25.004;2022-11-23T03:17:52;1.87;;;1.77;;
15153;SDS011;7677;41.896;25.004;2022-11-23T03:20:19;3.37;;;1.70;;
15153;SDS011;7677;41.896;25.004;2022-11-23T03:22:46;1.53;;;1.43;;
15153;SDS011;7677;41.896;25.004;2022-11-23T03:25:14;2.27;;;2.17;;
15153;SDS011;7677;41.896;25.004;2022-11-23T03:27:41;3.93;;;2.10;;
15153;SDS011;7677;41.896;25.004;2022-11-23T03:30:08;3.00;;;2.00;;
15153;SDS011;7677;41.896;25.004;2022-11-23T03:32:36;2.20;;;1.90;;
15153;SDS011;7677;41.896;25.004;2022-11-23T03:35:05;3.03;;;1.77;;
15153;SDS011;7677;41.896;25.004;2022-11-23T03:37:33;2.30;;;2.10;;
15153;SDS011;7677;41.896;25.004;2022-11-23T03:40:00;2.37;;;2.17;;
15153;SDS011;7677;41.896;25.004;2022-11-23T03:42:27;2.60;;;2.00;;
15153;SDS011;7677;41.896;25.004;2022-11-23T03:44:54;2.50;;;2.10;;
15153;SDS011;7677;41.896;25.004;2022-11-23T03:47:21;2.63;;;2.30;;
15153;SDS011;7677;41.896;25.004;2022-11-23T03:49:48;7.80;;;4.17;;
15153;SDS011;7677;41.896;25.004;2022-11-23T03:52:17;9.57;;;6.00;;
15153;SDS011;7677;41.896;25.004;2022-11-23T03:54:44;7.90;;;5.10;;
15153;SDS011;7677;41.896;25.004;2022-11-23T03:57:11;4.67;;;4.13;;
15153;SDS011;7677;41.896;25.004;2022-11-23T03:59:39;6.03;;;3.73;;
15153;SDS011;7677;41.896;25.004;2022-11-23T04:02:06;4.27;;;3.57;;
15153;SDS011;7677;41.896;25.004;2022-11-23T04:04:33;5.50;;;4.50;;
15153;SDS011;7677;41.896;25.004;2022-11-23T04:07:00;7.83;;;4.73;;
15153;SDS011;7677;41.896;25.004;2022-11-23T04:09:29;5.17;;;4.47;;
15153;SDS011;7677;41.896;25.004;2022-11-23T04:11:56;5.17;;;4.37;;
15153;SDS011;7677;41.896;25.004;2022-11-23T04:14:23;7.53;;;5.17;;
15153;SDS011;7677;41.896;25.004;2022-11-23T04:16:50;7.37;;;5.43;;
15153;SDS011;7677;41.896;25.004;2022-11-23T04:19:17;6.53;;;5.70;;
15153;SDS011;7677;41.896;25.004;2022-11-23T04:21:45;8.17;;;6.20;;
15153;SDS011;7677;41.896;25.004;2022-11-23T04:24:12;7.23;;;5.03;;
15153;SDS011;7677;41.896;25.004;2022-11-23T04:26:40;8.73;;;6.03;;
15153;SDS011;7677;41.896;25.004;2022-11-23T04:29:07;8.30;;;5.83;;
15153;SDS011;7677;41.896;25.004;2022-11-23T04:31:35;9.63;;;6.47;;
15153;SDS011;7677;41.896;25.004;2022-11-23T04:34:02;8.10;;;6.73;;
15153;SDS011;7677;41.896;25.004;2022-11-23T04:36:29;8.30;;;6.47;;
15153;SDS011;7677;41.896;25.004;2022-11-23T04:38:56;10.03;;;6.20;;
15153;SDS011;7677;41.896;25.004;2022-11-23T04:41:23;10.83;;;7.33;;
15153;SDS011;7677;41.896;25.004;2022-11-23T04:43:52;13.67;;;7.70;;
15153;SDS011;7677;41.896;25.004;2022-11-23T04:46:19;12.27;;;8.03;;
15153;SDS011;7677;41.896;25.004;2022-11-23T04:48:46;10.53;;;7.40;;
15153;SDS011;7677;41.896;25.004;2022-11-23T04:51:13;9.83;;;6.97;;
15153;SDS011;7677;41.896;25.004;2022-11-23T04:53:41;9.00;;;7.63;;
15153;SDS011;7677;41.896;25.004;2022-11-23T04:56:08;11.50;;;7.20;;
15153;SDS011;7677;41.896;25.004;2022-11-23T04:58:35;8.17;;;6.60;;
15153;SDS011;7677;41.896;25.004;2022-11-23T05:01:04;9.97;;;7.27;;
15153;SDS011;7677;41.896;25.004;2022-11-23T05:03:31;11.13;;;7.70;;
15153;SDS011;7677;41.896;25.004;2022-11-23T05:06:00;10.73;;;6.93;;
15153;SDS011;7677;41.896;25.004;2022-11-23T05:08:28;15.00;;;7.57;;
15153;SDS011;7677;41.896;25.004;2022-11-23T05:10:55;10.20;;;7.67;;
15153;SDS011;7677;41.896;25.004;2022-11-23T05:13:23;17.93;;;8.07;;
15153;SDS011;7677;41.896;25.004;2022-11-23T05:15:50;12.77;;;8.10;;
15153;SDS011;7677;41.896;25.004;2022-11-23T05:18:18;15.20;;;8.43;;
15153;SDS011;7677;41.896;25.004;2022-11-23T05:20:46;16.43;;;8.57;;
15153;SDS011;7677;41.896;25.004;2022-11-23T05:23:13;17.00;;;9.10;;
15153;SDS011;7677;41.896;25.004;2022-11-23T05:25:40;14.23;;;9.70;;
15153;SDS011;7677;41.896;25.004;2022-11-23T05:28:08;24.37;;;11.63;;
15153;SDS011;7677;41.896;25.004;2022-11-23T05:30:40;24.40;;;12.37;;
15153;SDS011;7677;41.896;25.004;2022-11-23T05:33:07;26.53;;;13.77;;
15153;SDS011;7677;41.896;25.004;2022-11-23T05:35:36;42.03;;;22.47;;
15153;SDS011;7677;41.896;25.004;2022-11-23T05:38:03;28.07;;;16.20;;
15153;SDS011;7677;41.896;25.004;2022-11-23T05:40:31;26.23;;;14.17;;
15153;SDS011;7677;41.896;25.004;2022-11-23T05:42:58;22.90;;;13.27;;
15153;SDS011;7677;41.896;25.004;2022-11-23T05:45:25;14.30;;;9.57;;
15153;SDS011;7677;41.896;25.004;2022-11-23T05:47:53;15.30;;;8.90;;
15153;SDS011;7677;41.896;25.004;2022-11-23T05:50:23;16.40;;;9.03;;
15153;SDS011;7677;41.896;25.004;2022-11-23T05:52:54;18.10;;;10.37;;
15153;SDS011;7677;41.896;25.004;2022-11-23T05:55:21;18.30;;;9.20;;
15153;SDS011;7677;41.896;25.004;2022-11-23T05:57:48;18.07;;;9.33;;
15153;SDS011;7677;41.896;25.004;2022-11-23T06:00:16;21.33;;;10.73;;
15153;SDS011;7677;41.896;25.004;2022-11-23T06:02:43;20.30;;;10.33;;
15153;SDS011;7677;41.896;25.004;2022-11-23T06:05:11;19.47;;;11.57;;
15153;SDS011;7677;41.896;25.004;2022-11-23T06:07:38;21.90;;;12.00;;
15153;SDS011;7677;41.896;25.004;2022-11-23T06:10:07;21.73;;;11.30;;
15153;SDS011;7677;41.896;25.004;2022-11-23T06:12:34;19.80;;;10.13;;
15153;SDS011;7677;41.896;25.004;2022-11-23T06:15:02;20.00;;;9.83;;
15153;SDS011;7677;41.896;25.004;2022-11-23T06:17:29;15.60;;;10.03;;
15153;SDS011;7677;41.896;25.004;2022-11-23T06:19:56;17.90;;;10.33;;
15153;SDS011;7677;41.896;25.004;2022-11-23T06:22:24;21.50;;;10.77;;
15153;SDS011;7677;41.896;25.004;2022-11-23T06:24:51;13.43;;;9.33;;
15153;SDS011;7677;41.896;25.004;2022-11-23T06:27:19;20.57;;;9.57;;
15153;SDS011;7677;41.896;25.004;2022-11-23T06:29:46;21.20;;;9.70;;
15153;SDS011;7677;41.896;25.004;2022-11-23T06:32:14;18.10;;;9.87;;
15153;SDS011;7677;41.896;25.004;2022-11-23T06:34:41;17.37;;;9.57;;
15153;SDS011;7677;41.896;25.004;2022-11-23T06:37:08;17.87;;;9.73;;
15153;SDS011;7677;41.896;25.004;2022-11-23T06:39:35;14.60;;;9.53;;
15153;SDS011;7677;41.896;25.004;2022-11-23T06:42:02;17.63;;;9.57;;
15153;SDS011;7677;41.896;25.004;2022-11-23T06:44:31;16.97;;;9.77;;
15153;SDS011;7677;41.896;25.004;2022-11-23T06:46:58;23.30;;;10.47;;
15153;SDS011;7677;41.896;25.004;2022-11-23T06:49:25;23.57;;;11.90;;
15153;SDS011;7677;41.896;25.004;2022-11-23T06:51:53;24.80;;;13.90;;
15153;SDS011;7677;41.896;25.004;2022-11-23T06:54:20;23.37;;;11.93;;
15153;SDS011;7677;41.896;25.004;2022-11-23T06:56:47;22.13;;;11.27;;
15153;SDS011;7677;41.896;25.004;2022-11-23T06:59:14;21.47;;;11.23;;
15153;SDS011;7677;41.896;25.004;2022-11-23T07:01:43;23.10;;;13.00;;
15153;SDS011;7677;41.896;25.004;2022-11-23T07:04:10;19.57;;;11.03;;
15153;SDS011;7677;41.896;25.004;2022-11-23T07:06:38;22.57;;;11.57;;
15153;SDS011;7677;41.896;25.004;2022-11-23T07:09:06;18.03;;;10.20;;
15153;SDS011;7677;41.896;25.004;2022-11-23T07:11:33;15.73;;;10.17;;
15153;SDS011;7677;41.896;25.004;2022-11-23T07:14:00;15.53;;;9.93;;
15153;SDS011;7677;41.896;25.004;2022-11-23T07:16:28;19.63;;;11.87;;
15153;SDS011;7677;41.896;25.004;2022-11-23T07:18:56;15.77;;;10.47;;
15153;SDS011;7677;41.896;25.004;2022-11-23T07:21:24;27.77;;;11.93;;
15153;SDS011;7677;41.896;25.004;2022-11-23T07:23:51;24.80;;;12.33;;
15153;SDS011;7677;41.896;25.004;2022-11-23T07:26:18;22.73;;;11.13;;
15153;SDS011;7677;41.896;25.004;2022-11-23T07:28:45;18.80;;;11.87;;
15153;SDS011;7677;41.896;25.004;2022-11-23T07:31:12;22.97;;;13.87;;
15153;SDS011;7677;41.896;25.004;2022-11-23T07:33:42;24.70;;;15.13;;
15153;SDS011;7677;41.896;25.004;2022-11-23T07:36:11;24.20;;;14.77;;
15153;SDS011;7677;41.896;25.004;2022-11-23T07:38:39;21.07;;;11.23;;
15153;SDS011;7677;41.896;25.004;2022-11-23T07:41:06;17.43;;;10.93;;
15153;SDS011;7677;41.896;25.004;2022-11-23T07:43:33;17.67;;;9.00;;
15153;SDS011;7677;41.896;25.004;2022-11-23T07:46:00;17.97;;;9.57;;
15153;SDS011;7677;41.896;25.004;2022-11-23T07:48:28;13.23;;;8.57;;
15153;SDS011;7677;41.896;25.004;2022-11-23T07:50:55;12.97;;;8.23;;
15153;SDS011;7677;41.896;25.004;2022-11-23T07:53:26;12.70;;;8.57;;
15153;SDS011;7677;41.896;25.004;2022-11-23T07:55:54;18.17;;;9.27;;
15153;SDS011;7677;41.896;25.004;2022-11-23T07:58:23;15.33;;;10.37;;
15153;SDS011;7677;41.896;25.004;2022-11-23T08:00:50;15.33;;;9.97;;
15153;SDS011;7677;41.896;25.004;2022-11-23T08:03:17;14.13;;;8.13;;
15153;SDS011;7677;41.896;25.004;2022-11-23T08:05:45;12.20;;;8.07;;
15153;SDS011;7677;41.896;25.004;2022-11-23T08:08:12;13.17;;;8.57;;
15153;SDS011;7677;41.896;25.004;2022-11-23T08:10:41;11.47;;;7.13;;
15153;SDS011;7677;41.896;25.004;2022-11-23T08:13:08;11.60;;;7.77;;
15153;SDS011;7677;41.896;25.004;2022-11-23T08:15:35;9.43;;;6.37;;
15153;SDS011;7677;41.896;25.004;2022-11-23T08:18:02;16.43;;;7.43;;
15153;SDS011;7677;41.896;25.004;2022-11-23T08:20:30;13.13;;;8.77;;
15153;SDS011;7677;41.896;25.004;2022-11-23T08:22:58;14.70;;;9.43;;
15153;SDS011;7677;41.896;25.004;2022-11-23T08:25:26;12.17;;;9.33;;
15153;SDS011;7677;41.896;25.004;2022-11-23T08:27:56;12.53;;;8.50;;
15153;SDS011;7677;41.896;25.004;2022-11-23T08:30:24;12.77;;;9.13;;
15153;SDS011;7677;41.896;25.004;2022-11-23T08:32:51;14.57;;;9.20;;
15153;SDS011;7677;41.896;25.004;2022-11-23T08:35:18;11.83;;;8.53;;
15153;SDS011;7677;41.896;25.004;2022-11-23T08:37:46;12.17;;;8.30;;
15153;SDS011;7677;41.896;25.004;2022-11-23T08:40:13;16.23;;;9.53;;
15153;SDS011;7677;41.896;25.004;2022-11-23T08:42:41;15.63;;;9.20;;
15153;SDS011;7677;41.896;25.004;2022-11-23T08:45:10;24.20;;;14.17;;
15153;SDS011;7677;41.896;25.004;2022-11-23T08:47:37;17.50;;;10.33;;
15153;SDS011;7677;41.896;25.004;2022-11-23T08:50:05;14.90;;;9.63;;
15153;SDS011;7677;41.896;25.004;2022-11-23T08:52:33;11.50;;;7.97;;
15153;SDS011;7677;41.896;25.004;2022-11-23T08:55:00;9.33;;;7.23;;
15153;SDS011;7677;41.896;25.004;2022-11-23T08:57:27;8.47;;;6.37;;
15153;SDS011;7677;41.896;25.004;2022-11-23T08:59:55;11.00;;;6.63;;
15153;SDS011;7677;41.896;25.004;2022-11-23T09:02:23;10.93;;;6.47;;
15153;SDS011;7677;41.896;25.004;2022-11-23T09:04:50;10.33;;;7.27;;
15153;SDS011;7677;41.896;25.004;2022-11-23T09:07:18;12.30;;;8.03;;
15153;SDS011;7677;41.896;25.004;2022-11-23T09:09:45;9.87;;;6.93;;
15153;SDS011;7677;41.896;25.004;2022-11-23T09:12:12;11.23;;;6.63;;
15153;SDS011;7677;41.896;25.004;2022-11-23T09:14:39;8.13;;;6.13;;
15153;SDS011;7677;41.896;25.004;2022-11-23T09:17:07;9.87;;;7.17;;
15153;SDS011;7677;41.896;25.004;2022-11-23T09:19:35;14.27;;;9.20;;
15153;SDS011;7677;41.896;25.004;2022-11-23T09:22:02;9.33;;;6.60;;
15153;SDS011;7677;41.896;25.004;2022-11-23T09:24:30;9.93;;;6.30;;
15153;SDS011;7677;41.896;25.004;2022-11-23T09:26:57;8.07;;;5.73;;
15153;SDS011;7677;41.896;25.004;2022-11-23T09:29:24;8.83;;;5.60;;
15153;SDS011;7677;41.896;25.004;2022-11-23T09:31:51;10.03;;;7.27;;
15153;SDS011;7677;41.896;25.004;2022-11-23T09:34:18;15.07;;;9.53;;
15153;SDS011;7677;41.896;25.004;2022-11-23T09:36:47;13.13;;;8.73;;
15153;SDS011;7677;41.896;25.004;2022-11-23T09:39:14;11.63;;;7.20;;
15153;SDS011;7677;41.896;25.004;2022-11-23T09:44:36;12.43;;;7.90;;
15153;SDS011;7677;41.896;25.004;2022-11-23T09:47:19;8.30;;;6.43;;
15153;SDS011;7677;41.896;25.004;2022-11-23T09:50:07;10.93;;;7.40;;
15153;SDS011;7677;41.896;25.004;2022-11-23T09:52:41;21.00;;;12.40;;
15153;SDS011;7677;41.896;25.004;2022-11-23T09:55:12;12.07;;;8.37;;
15153;SDS011;7677;41.896;25.004;2022-11-23T09:57:43;11.20;;;6.90;;
15153;SDS011;7677;41.896;25.004;2022-11-23T10:00:15;8.97;;;6.87;;
15153;SDS011;7677;41.896;25.004;2022-11-23T10:02:44;11.77;;;6.80;;
15153;SDS011;7677;41.896;25.004;2022-11-23T10:05:13;11.17;;;7.97;;
15153;SDS011;7677;41.896;25.004;2022-11-23T10:07:48;10.83;;;6.77;;
15153;SDS011;7677;41.896;25.004;2022-11-23T10:10:24;12.87;;;7.23;;
15153;SDS011;7677;41.896;25.004;2022-11-23T10:12:59;14.43;;;7.53;;
15153;SDS011;7677;41.896;25.004;2022-11-23T10:15:32;12.07;;;7.83;;
15153;SDS011;7677;41.896;25.004;2022-11-23T10:18:08;11.80;;;8.13;;
15153;SDS011;7677;41.896;25.004;2022-11-23T10:20:58;9.23;;;6.67;;
15153;SDS011;7677;41.896;25.004;2022-11-23T10:23:45;10.47;;;7.40;;
15153;SDS011;7677;41.896;25.004;2022-11-23T10:26:18;16.73;;;8.93;;
15153;SDS011;7677;41.896;25.004;2022-11-23T10:28:47;12.43;;;8.37;;
15153;SDS011;7677;41.896;25.004;2022-11-23T10:31:16;11.07;;;8.27;;
15153;SDS011;7677;41.896;25.004;2022-11-23T10:33:47;11.03;;;8.00;;
15153;SDS011;7677;41.896;25.004;2022-11-23T10:36:18;13.00;;;9.13;;
15153;SDS011;7677;41.896;25.004;2022-11-23T10:38:47;10.27;;;7.93;;
15153;SDS011;7677;41.896;25.004;2022-11-23T10:41:15;16.37;;;8.37;;
15153;SDS011;7677;41.896;25.004;2022-11-23T10:43:43;14.00;;;9.33;;
15153;SDS011;7677;41.896;25.004;2022-11-23T10:46:27;13.73;;;8.37;;
15153;SDS011;7677;41.896;25.004;2022-11-23T10:49:06;14.57;;;8.90;;
15153;SDS011;7677;41.896;25.004;2022-11-23T10:51:35;14.57;;;8.90;;
15153;SDS011;7677;41.896;25.004;2022-11-23T10:54:05;12.27;;;8.37;;
15153;SDS011;7677;41.896;25.004;2022-11-23T10:56:44;11.00;;;7.27;;
15153;SDS011;7677;41.896;25.004;2022-11-23T10:59:24;13.20;;;8.20;;
15153;SDS011;7677;41.896;25.004;2022-11-23T11:01:58;11.07;;;7.20;;
15153;SDS011;7677;41.896;25.004;2022-11-23T11:04:26;13.50;;;8.90;;
15153;SDS011;7677;41.896;25.004;2022-11-23T11:07:01;13.00;;;8.87;;
15153;SDS011;7677;41.896;25.004;2022-11-23T11:09:37;14.30;;;8.70;;
15153;SDS011;7677;41.896;25.004;2022-11-23T11:12:07;10.10;;;7.53;;
15153;SDS011;7677;41.896;25.004;2022-11-23T11:14:50;10.70;;;8.13;;
15153;SDS011;7677;41.896;25.004;2022-11-23T11:17:24;9.53;;;7.37;;
15153;SDS011;7677;41.896;25.004;2022-11-23T11:19:52;8.60;;;6.40;;
15153;SDS011;7677;41.896;25.004;2022-11-23T11:22:27;8.50;;;6.60;;
15153;SDS011;7677;41.896;25.004;2022-11-23T11:25:00;6.93;;;6.13;;
15153;SDS011;7677;41.896;25.004;2022-11-23T11:27:28;7.67;;;6.33;;
15153;SDS011;7677;41.896;25.004;2022-11-23T11:29:57;7.13;;;5.97;;
15153;SDS011;7677;41.896;25.004;2022-11-23T11:32:31;6.60;;;5.67;;
15153;SDS011;7677;41.896;25.004;2022-11-23T11:35:08;9.47;;;6.40;;
15153;SDS011;7677;41.896;25.004;2022-11-23T11:37:38;8.00;;;6.27;;
15153;SDS011;7677;41.896;25.004;2022-11-23T11:40:11;7.50;;;5.63;;
15153;SDS011;7677;41.896;25.004;2022-11-23T11:42:44;6.50;;;5.87;;
15153;SDS011;7677;41.896;25.004;2022-11-23T11:45:15;8.57;;;6.50;;
15153;SDS011;7677;41.896;25.004;2022-11-23T11:47:44;8.77;;;6.50;;
15153;SDS011;7677;41.896;25.004;2022-11-23T11:50:18;9.67;;;7.43;;
15153;SDS011;7677;41.896;25.004;2022-11-23T11:52:47;10.97;;;7.10;;
15153;SDS011;7677;41.896;25.004;2022-11-23T11:55:21;8.93;;;6.33;;
15153;SDS011;7677;41.896;25.004;2022-11-23T11:57:51;9.50;;;6.90;;
15153;SDS011;7677;41.896;25.004;2022-11-23T12:00:21;15.63;;;6.57;;
15153;SDS011;7677;41.896;25.004;2022-11-23T12:02:50;12.10;;;7.07;;
15153;SDS011;7677;41.896;25.004;2022-11-23T12:05:23;10.87;;;6.97;;
15153;SDS011;7677;41.896;25.004;2022-11-23T12:07:56;9.43;;;7.00;;
15153;SDS011;7677;41.896;25.004;2022-11-23T12:10:31;12.33;;;7.90;;
15153;SDS011;7677;41.896;25.004;2022-11-23T12:13:02;10.30;;;7.33;;
15153;SDS011;7677;41.896;25.004;2022-11-23T12:15:33;10.83;;;7.77;;
15153;SDS011;7677;41.896;25.004;2022-11-23T12:21:24;11.80;;;7.80;;
15153;SDS011;7677;41.896;25.004;2022-11-23T12:24:02;10.60;;;7.83;;
15153;SDS011;7677;41.896;25.004;2022-11-23T12:26:40;10.57;;;8.60;;
15153;SDS011;7677;41.896;25.004;2022-11-23T12:29:20;10.03;;;8.47;;
15153;SDS011;7677;41.896;25.004;2022-11-23T12:32:05;13.33;;;8.07;;
15153;SDS011;7677;41.896;25.004;2022-11-23T12:34:43;10.27;;;7.47;;
15153;SDS011;7677;41.896;25.004;2022-11-23T12:37:21;10.13;;;7.43;;
15153;SDS011;7677;41.896;25.004;2022-11-23T12:42:45;13.93;;;7.73;;
15153;SDS011;7677;41.896;25.004;2022-11-23T12:48:06;9.23;;;7.37;;
15153;SDS011;7677;41.896;25.004;2022-11-23T12:50:45;8.70;;;7.23;;
15153;SDS011;7677;41.896;25.004;2022-11-23T12:53:20;13.43;;;9.17;;
15153;SDS011;7677;41.896;25.004;2022-11-23T12:55:57;18.07;;;9.93;;
15153;SDS011;7677;41.896;25.004;2022-11-23T12:58:31;14.60;;;9.67;;
15153;SDS011;7677;41.896;25.004;2022-11-23T13:01:00;10.83;;;8.17;;
15153;SDS011;7677;41.896;25.004;2022-11-23T13:03:40;15.43;;;10.97;;
15153;SDS011;7677;41.896;25.004;2022-11-23T13:06:36;15.30;;;10.73;;
15153;SDS011;7677;41.896;25.004;2022-11-23T13:09:42;13.00;;;9.17;;
15153;SDS011;7677;41.896;25.004;2022-11-23T13:12:27;16.13;;;8.83;;
15153;SDS011;7677;41.896;25.004;2022-11-23T13:15:06;13.30;;;7.70;;
15153;SDS011;7677;41.896;25.004;2022-11-23T13:17:45;13.27;;;8.90;;
15153;SDS011;7677;41.896;25.004;2022-11-23T13:20:24;13.03;;;8.47;;
15153;SDS011;7677;41.896;25.004;2022-11-23T13:22:59;9.60;;;7.90;;
15153;SDS011;7677;41.896;25.004;2022-11-23T13:25:29;12.03;;;7.67;;
15153;SDS011;7677;41.896;25.004;2022-11-23T13:27:57;11.17;;;7.53;;
15153;SDS011;7677;41.896;25.004;2022-11-23T13:30:28;10.70;;;8.40;;
15153;SDS011;7677;41.896;25.004;2022-11-23T13:32:58;13.13;;;7.93;;
15153;SDS011;7677;41.896;25.004;2022-11-23T13:38:23;10.83;;;8.30;;
15153;SDS011;7677;41.896;25.004;2022-11-23T13:40:55;9.27;;;7.50;;
15153;SDS011;7677;41.896;25.004;2022-11-23T13:43:23;13.97;;;10.07;;
15153;SDS011;7677;41.896;25.004;2022-11-23T13:46:17;11.67;;;9.23;;
15153;SDS011;7677;41.896;25.004;2022-11-23T13:48:48;15.80;;;10.07;;
15153;SDS011;7677;41.896;25.004;2022-11-23T13:51:21;13.23;;;9.60;;
15153;SDS011;7677;41.896;25.004;2022-11-23T13:53:50;14.97;;;10.10;;
15153;SDS011;7677;41.896;25.004;2022-11-23T13:56:21;16.63;;;9.67;;
15153;SDS011;7677;41.896;25.004;2022-11-23T13:58:52;16.63;;;10.93;;
15153;SDS011;7677;41.896;25.004;2022-11-23T14:04:27;14.63;;;10.30;;
15153;SDS011;7677;41.896;25.004;2022-11-23T14:06:55;15.67;;;11.00;;
15153;SDS011;7677;41.896;25.004;2022-11-23T14:09:27;13.67;;;9.23;;
15153;SDS011;7677;41.896;25.004;2022-11-23T14:12:07;11.90;;;8.27;;
15153;SDS011;7677;41.896;25.004;2022-11-23T14:14:44;11.43;;;8.73;;
15153;SDS011;7677;41.896;25.004;2022-11-23T14:17:28;13.80;;;9.13;;
15153;SDS011;7677;41.896;25.004;2022-11-23T14:23:27;13.07;;;8.90;;
15153;SDS011;7677;41.896;25.004;2022-11-23T14:26:07;13.60;;;9.50;;
15153;SDS011;7677;41.896;25.004;2022-11-23T14:28:47;15.50;;;10.57;;
15153;SDS011;7677;41.896;25.004;2022-11-23T14:31:22;26.40;;;15.87;;
15153;SDS011;7677;41.896;25.004;2022-11-23T14:34:00;34.37;;;20.77;;
15153;SDS011;7677;41.896;25.004;2022-11-23T14:36:36;54.23;;;28.70;;
15153;SDS011;7677;41.896;25.004;2022-11-23T14:39:26;26.70;;;16.80;;
15153;SDS011;7677;41.896;25.004;2022-11-23T14:42:03;30.17;;;18.27;;
15153;SDS011;7677;41.896;25.004;2022-11-23T14:44:37;22.00;;;14.83;;
15153;SDS011;7677;41.896;25.004;2022-11-23T14:47:06;19.40;;;13.70;;
15153;SDS011;7677;41.896;25.004;2022-11-23T14:49:36;16.57;;;11.10;;
15153;SDS011;7677;41.896;25.004;2022-11-23T14:52:12;15.53;;;10.63;;
15153;SDS011;7677;41.896;25.004;2022-11-23T14:54:45;17.80;;;10.03;;
15153;SDS011;7677;41.896;25.004;2022-11-23T14:57:13;11.37;;;8.57;;
15153;SDS011;7677;41.896;25.004;2022-11-23T14:59:41;12.20;;;8.50;;
15153;SDS011;7677;41.896;25.004;2022-11-23T15:02:13;11.57;;;8.23;;
15153;SDS011;7677;41.896;25.004;2022-11-23T15:04:52;10.67;;;8.70;;
15153;SDS011;7677;41.896;25.004;2022-11-23T15:07:24;12.57;;;9.07;;
15153;SDS011;7677;41.896;25.004;2022-11-23T15:09:54;13.83;;;9.47;;
15153;SDS011;7677;41.896;25.004;2022-11-23T15:12:29;14.50;;;9.70;;
15153;SDS011;7677;41.896;25.004;2022-11-23T15:15:14;13.93;;;9.30;;